Time;durP1;ratioP1;P1;durP2;ratioP2;P2;SDS_P1;SDS_P2;PMS_P1;PMS_P2;Temp;Humidity;BMP_temperature;BMP_pressure;BME280_temperature;BME280_humidity;BME280_pressure;Samples;Min_cycle;Max_cycle;Signal;HPM_P1;HPM_P2
2023/01/21 00:00:53;;;;;;;2.15;0.20;;;19.70;44.00;;;;;;5064765;28;20041;-50
2023/01/21 00:03:20;;;;;;;2.10;0.30;;;19.70;44.00;;;;;;5064263;28;20650;-49
2023/01/21 00:05:48;;;;;;;4.97;0.60;;;19.70;44.00;;;;;;5064463;28;20041;-52
2023/01/21 00:08:15;;;;;;;4.70;0.38;;;19.70;44.20;;;;;;5063101;28;20122;-53
2023/01/21 00:10:43;;;;;;;5.20;0.55;;;19.70;44.20;;;;;;5064342;28;20048;-53
2023/01/21 00:13:11;;;;;;;4.85;1.02;;;19.70;44.20;;;;;;5064297;28;20052;-52
2023/01/21 00:15:38;;;;;;;6.25;0.47;;;19.70;44.20;;;;;;5064007;28;20044;-53
2023/01/21 00:18:05;;;;;;;5.68;0.60;;;19.70;44.20;;;;;;5064412;28;20550;-48
2023/01/21 00:20:32;;;;;;;6.95;0.20;;;19.70;44.20;;;;;;5064456;28;20047;-48
2023/01/21 00:23:02;;;;;;;5.70;0.90;;;19.70;44.20;;;;;;5053411;28;20041;-51
2023/01/21 00:25:29;;;;;;;3.80;0.50;;;19.60;44.10;;;;;;5064679;28;20040;-55
2023/01/21 00:27:56;;;;;;;5.78;1.38;;;19.60;44.20;;;;;;5064913;28;20127;-53
2023/01/21 00:30:23;;;;;;;1.35;0.30;;;19.60;44.20;;;;;;5044556;28;20048;-49
2023/01/21 00:32:51;;;;;;;5.70;0.30;;;19.60;44.20;;;;;;5043005;28;20041;-49
2023/01/21 00:35:18;;;;;;;1.23;0.28;;;19.60;44.00;;;;;;5043041;28;20049;-49
2023/01/21 00:37:45;;;;;;;1.80;0.30;;;19.60;43.80;;;;;;5042917;28;20738;-47
2023/01/21 00:40:14;;;;;;;4.78;0.70;;;19.60;43.70;;;;;;5043005;28;20049;-51
2023/01/21 00:42:41;;;;;;;10.52;0.40;;;19.60;43.60;;;;;;5043031;28;20056;-48
2023/01/21 00:45:09;;;;;;;7.55;0.73;;;19.50;43.60;;;;;;5052787;28;20525;-49
2023/01/21 00:47:36;;;;;;;2.95;0.63;;;19.50;43.50;;;;;;5062574;28;20039;-45
2023/01/21 00:50:04;;;;;;;2.17;0.10;;;19.50;43.50;;;;;;5063599;28;20076;-45
2023/01/21 00:52:31;;;;;;;5.93;0.55;;;19.50;43.50;;;;;;5064140;28;20086;-45
2023/01/21 00:54:58;;;;;;;0.85;0.20;;;19.50;43.50;;;;;;5062756;28;20106;-46
2023/01/21 00:57:27;;;;;;;1.52;0.30;;;19.50;43.50;;;;;;5064659;28;20040;-47
2023/01/21 00:59:54;;;;;;;0.45;0.10;;;19.50;43.50;;;;;;5064105;28;20052;-47
2023/01/21 01:02:21;;;;;;;3.42;0.73;;;19.50;43.50;;;;;;5052596;28;20072;-45
2023/01/21 01:04:49;;;;;;;1.35;0.20;;;19.50;43.40;;;;;;5044309;28;20517;-53
2023/01/21 01:07:16;;;;;;;2.45;0.10;;;19.50;43.40;;;;;;5044616;28;20413;-50
2023/01/21 01:09:43;;;;;;;2.15;0.10;;;19.50;43.40;;;;;;5062377;28;20064;-47
2023/01/21 01:12:10;;;;;;;3.08;0.10;;;19.50;43.40;;;;;;5064437;28;20386;-47
2023/01/21 01:14:38;;;;;;;1.55;0.10;;;19.50;43.50;;;;;;5059749;28;20120;-51
2023/01/21 01:17:05;;;;;;;8.88;0.20;;;19.50;43.50;;;;;;5044048;28;20410;-53
2023/01/21 01:19:32;;;;;;;4.30;0.10;;;19.50;43.60;;;;;;5044111;28;20428;-47
2023/01/21 01:21:59;;;;;;;3.45;0.98;;;19.50;43.60;;;;;;5044275;28;20041;-49
2023/01/21 01:24:26;;;;;;;0.40;0.20;;;19.50;43.60;;;;;;5048916;28;20079;-47
2023/01/21 01:26:53;;;;;;;0.57;0.10;;;19.50;43.60;;;;;;5047892;28;20576;-48
2023/01/21 01:29:20;;;;;;;1.88;0.20;;;19.40;43.60;;;;;;5054072;28;20032;-46
2023/01/21 01:31:48;;;;;;;1.80;0.10;;;19.40;43.60;;;;;;5047469;28;20527;-48
2023/01/21 01:34:15;;;;;;;0.90;0.10;;;19.40;43.60;;;;;;5077292;28;20123;-47
2023/01/21 01:36:43;;;;;;;1.55;0.20;;;19.40;43.70;;;;;;5087716;28;20804;-47
2023/01/21 01:39:10;;;;;;;2.10;0.30;;;19.40;43.70;;;;;;5087745;28;20052;-47
2023/01/21 01:41:37;;;;;;;0.43;0.10;;;19.40;43.70;;;;;;5087770;28;20036;-50
2023/01/21 01:44:44;;;;;;;0.38;0.35;;;19.30;43.70;;;;;;5087562;28;20048;-47
2023/01/21 01:47:14;;;;;;;0.57;0.10;;;19.30;43.70;;;;;;5087945;28;20044;-45
2023/01/21 01:49:42;;;;;;;0.10;0.00;;;19.30;43.80;;;;;;5088098;28;20123;-47
2023/01/21 01:52:11;;;;;;;1.65;0.38;;;19.30;43.90;;;;;;5088033;28;20128;-47
2023/01/21 01:54:41;;;;;;;1.25;0.10;;;19.20;44.50;;;;;;5074758;28;20060;-47
2023/01/21 01:57:12;;;;;;;0.57;0.10;;;19.20;44.00;;;;;;5067735;28;20052;-48
2023/01/21 01:59:40;;;;;;;3.92;0.30;;;19.20;44.00;;;;;;5067152;28;20059;-46
2023/01/21 02:02:11;;;;;;;1.17;0.10;;;19.20;44.00;;;;;;5067472;28;20040;-46
2023/01/21 02:04:44;;;;;;;0.15;0.05;;;19.20;44.20;;;;;;5066227;28;20045;-48
2023/01/21 02:07:12;;;;;;;0.20;0.10;;;19.20;44.30;;;;;;5083037;28;20459;-50
2023/01/21 02:09:39;;;;;;;1.90;0.30;;;19.10;44.30;;;;;;5066495;28;20076;-48
2023/01/21 02:12:07;;;;;;;2.20;0.40;;;19.10;44.30;;;;;;5067865;28;20057;-47
2023/01/21 02:14:41;;;;;;;0.82;0.10;;;19.10;44.30;;;;;;5067234;28;20131;-49
2023/01/21 02:17:25;;;;;;;1.27;0.10;;;19.10;44.30;;;;;;5067368;28;20051;-48
2023/01/21 02:20:55;;;;;;;0.38;0.10;;;19.10;44.30;;;;;;5067302;28;20120;-45
2023/01/21 02:23:32;;;;;;;3.95;0.10;;;19.10;44.30;;;;;;5004434;28;20061;-47
2023/01/21 02:26:34;;;;;;;1.95;0.63;;;19.00;44.40;;;;;;5004745;28;20165;-46
2023/01/21 02:29:31;;;;;;;0.20;0.10;;;19.00;44.40;;;;;;4997963;28;20042;-47
2023/01/21 02:32:27;;;;;;;0.30;0.20;;;19.00;44.50;;;;;;4968929;28;20458;-46
2023/01/21 02:35:01;;;;;;;3.40;0.10;;;19.00;44.50;;;;;;4984206;28;20050;-52
2023/01/21 02:37:35;;;;;;;1.20;0.10;;;18.90;44.60;;;;;;4985157;28;20058;-49
2023/01/21 02:40:11;;;;;;;0.43;0.10;;;18.90;44.60;;;;;;4984770;28;20498;-47
2023/01/21 02:42:43;;;;;;;0.17;0.10;;;18.90;44.50;;;;;;4984843;28;20057;-46
2023/01/21 02:45:21;;;;;;;1.88;0.10;;;18.90;44.60;;;;;;4984652;28;20133;-49
2023/01/21 02:47:56;;;;;;;0.35;0.00;;;18.90;44.60;;;;;;4968516;28;20053;-46
2023/01/21 02:50:28;;;;;;;0.08;0.03;;;18.90;44.60;;;;;;4984898;28;20046;-47
2023/01/21 02:52:56;;;;;;;2.13;0.10;;;18.80;44.50;;;;;;4984425;28;20138;-46
2023/01/21 02:55:28;;;;;;;0.65;0.10;;;18.80;44.50;;;;;;5060531;28;20420;-45
2023/01/21 02:57:59;;;;;;;0.85;0.10;;;18.80;44.40;;;;;;5066254;28;20040;-46
2023/01/21 03:00:35;;;;;;;2.53;0.00;;;18.80;44.50;;;;;;5066020;28;20066;-49
2023/01/21 03:03:33;;;;;;;0.70;0.43;;;18.80;44.40;;;;;;5066365;28;20041;-49
2023/01/21 03:06:38;;;;;;;0.52;0.10;;;18.80;44.40;;;;;;5057142;28;20060;-45
2023/01/21 03:09:18;;;;;;;1.05;0.10;;;18.80;44.40;;;;;;5066053;28;20052;-45
2023/01/21 03:11:55;;;;;;;0.68;0.68;;;18.70;44.50;;;;;;5065220;28;20127;-44
2023/01/21 03:17:16;;;;;;;0.20;0.10;;;18.60;44.20;;;;;;5065940;28;19928;-46
2023/01/21 03:19:49;;;;;;;0.20;0.20;;;18.60;44.40;;;;;;5066169;28;20602;-47
2023/01/21 03:22:20;;;;;;;0.22;0.20;;;18.60;44.30;;;;;;5065920;28;20610;-46
2023/01/21 03:24:50;;;;;;;0.10;0.10;;;18.60;44.30;;;;;;5066120;28;20139;-45
2023/01/21 03:27:21;;;;;;;0.68;0.20;;;18.60;44.30;;;;;;5065500;28;20044;-44
2023/01/21 03:29:52;;;;;;;0.13;0.10;;;18.60;44.20;;;;;;5064166;28;20055;-47
2023/01/21 03:32:21;;;;;;;1.58;1.00;;;18.50;44.10;;;;;;5064304;28;20041;-49
2023/01/21 03:34:52;;;;;;;0.60;0.10;;;18.50;44.10;;;;;;5066089;28;20052;-47
2023/01/21 03:37:30;;;;;;;0.20;0.10;;;18.50;44.20;;;;;;5065945;28;20045;-46
2023/01/21 03:40:10;;;;;;;1.38;0.13;;;18.50;44.20;;;;;;5064520;28;20181;-45
2023/01/21 03:42:37;;;;;;;0.50;0.10;;;18.50;44.10;;;;;;5065656;28;20040;-50
2023/01/21 03:45:05;;;;;;;0.10;0.10;;;18.50;44.20;;;;;;5065605;28;20047;-48
2023/01/21 03:47:34;;;;;;;0.10;0.10;;;18.50;44.10;;;;;;5065675;28;20447;-48
2023/01/21 03:50:07;;;;;;;0.30;0.10;;;18.50;44.10;;;;;;5065872;28;20516;-45
2023/01/21 03:52:40;;;;;;;0.10;0.10;;;18.50;44.20;;;;;;5065537;28;20052;-49
2023/01/21 03:55:08;;;;;;;1.20;0.32;;;18.50;44.30;;;;;;5064938;28;20502;-47
2023/01/21 03:57:35;;;;;;;0.98;0.10;;;18.40;44.30;;;;;;5065649;28;20044;-48
2023/01/21 04:00:03;;;;;;;2.45;0.40;;;18.40;44.30;;;;;;5077402;28;20515;-46
2023/01/21 04:02:32;;;;;;;1.50;0.10;;;18.40;44.20;;;;;;5083855;28;20569;-47
2023/01/21 04:04:59;;;;;;;0.30;0.10;;;18.40;44.10;;;;;;5085834;28;20646;-47
2023/01/21 04:07:26;;;;;;;0.57;0.10;;;18.40;44.00;;;;;;5085820;28;20501;-47
2023/01/21 04:09:55;;;;;;;1.55;0.17;;;18.40;44.00;;;;;;5085371;28;20040;-45
2023/01/21 04:12:22;;;;;;;0.30;0.20;;;18.40;43.90;;;;;;5085453;28;20046;-47
2023/01/21 04:14:49;;;;;;;2.72;0.15;;;18.30;43.90;;;;;;5085599;28;20946;-48
2023/01/21 04:17:17;;;;;;;0.40;0.20;;;18.30;43.80;;;;;;5085259;28;20090;-45
2023/01/21 04:19:44;;;;;;;0.55;0.30;;;18.30;43.80;;;;;;5085831;28;20036;-48
2023/01/21 04:22:11;;;;;;;0.85;0.10;;;18.30;43.80;;;;;;5085900;28;20400;-46
2023/01/21 04:24:38;;;;;;;0.22;0.20;;;18.30;43.80;;;;;;5083749;28;20048;-46
2023/01/21 04:27:06;;;;;;;0.65;0.65;;;18.30;43.80;;;;;;5085414;28;20735;-47
2023/01/21 04:29:33;;;;;;;0.55;0.55;;;18.30;43.70;;;;;;5056819;28;20045;-46
2023/01/21 04:32:00;;;;;;;0.45;0.40;;;18.30;43.70;;;;;;5044727;28;20049;-45
2023/01/21 04:34:27;;;;;;;0.35;0.35;;;18.20;43.60;;;;;;5045101;28;20576;-49
2023/01/21 04:36:54;;;;;;;3.05;0.20;;;18.30;43.70;;;;;;5045171;28;20096;-49
2023/01/21 04:39:21;;;;;;;0.45;0.20;;;18.20;43.60;;;;;;5044779;28;20051;-47
2023/01/21 04:41:49;;;;;;;0.40;0.20;;;18.20;43.70;;;;;;5045112;28;20114;-47
2023/01/21 04:44:17;;;;;;;0.50;0.28;;;18.20;43.70;;;;;;5043496;28;20048;-50
2023/01/21 04:46:45;;;;;;;0.52;0.22;;;18.20;43.60;;;;;;5045098;28;20154;-46
2023/01/21 04:49:13;;;;;;;0.28;0.20;;;18.20;43.70;;;;;;5057124;28;20033;-47
2023/01/21 04:51:40;;;;;;;0.45;0.20;;;18.20;43.60;;;;;;5063274;28;20913;-49
2023/01/21 04:54:08;;;;;;;2.08;0.20;;;18.20;43.70;;;;;;5064256;28;20044;-48
2023/01/21 04:56:36;;;;;;;1.70;0.30;;;18.10;43.60;;;;;;5063225;28;20048;-46
2023/01/21 04:59:03;;;;;;;0.20;0.10;;;18.20;43.70;;;;;;5063401;28;20048;-45
2023/01/21 05:01:32;;;;;;;0.55;0.20;;;18.20;43.60;;;;;;5066314;28;20084;-45
2023/01/21 05:03:59;;;;;;;1.65;0.13;;;18.10;43.50;;;;;;5068856;28;20052;-46
2023/01/21 05:06:26;;;;;;;0.55;0.20;;;18.10;43.50;;;;;;5068155;28;20128;-50
2023/01/21 05:08:53;;;;;;;0.50;0.10;;;18.10;43.40;;;;;;5068321;28;20028;-47
2023/01/21 05:11:20;;;;;;;0.30;0.20;;;18.10;43.40;;;;;;5068532;28;20106;-47
2023/01/21 05:13:48;;;;;;;0.20;0.10;;;18.10;43.40;;;;;;5068296;28;20044;-45
2023/01/21 05:16:16;;;;;;;0.52;0.43;;;18.10;43.30;;;;;;5068403;28;20185;-48
2023/01/21 05:18:44;;;;;;;0.30;0.20;;;18.10;43.30;;;;;;5067076;28;20632;-47
2023/01/21 05:21:12;;;;;;;0.50;0.50;;;18.10;43.90;;;;;;5067969;28;20154;-45
2023/01/21 05:23:39;;;;;;;1.23;0.30;;;18.10;43.20;;;;;;5068173;28;20124;-48
2023/01/21 05:26:06;;;;;;;0.95;0.43;;;18.10;43.10;;;;;;5066535;28;20134;-52
2023/01/21 05:28:33;;;;;;;1.55;0.75;;;18.10;43.10;;;;;;5055531;28;20044;-47
2023/01/21 05:31:02;;;;;;;0.90;0.47;;;18.10;43.10;;;;;;5048121;28;20049;-50
2023/01/21 05:33:31;;;;;;;1.33;0.10;;;18.10;43.10;;;;;;5048024;28;20496;-48
2023/01/21 05:36:00;;;;;;;1.00;0.32;;;18.00;43.00;;;;;;5047693;28;20068;-47
2023/01/21 05:38:27;;;;;;;1.08;0.20;;;18.00;42.90;;;;;;5061197;28;20047;-51
2023/01/21 05:40:59;;;;;;;2.60;0.50;;;18.00;43.00;;;;;;5068084;28;20052;-48
2023/01/21 05:43:26;;;;;;;0.90;0.30;;;18.00;42.90;;;;;;5067913;28;20044;-46
2023/01/21 05:45:53;;;;;;;0.88;0.25;;;18.00;42.90;;;;;;5067549;28;20051;-47
2023/01/21 05:48:21;;;;;;;0.30;0.30;;;18.00;42.90;;;;;;5068032;28;20208;-48
2023/01/21 05:50:48;;;;;;;0.28;0.20;;;18.00;42.80;;;;;;5067748;28;20041;-52
2023/01/21 05:53:16;;;;;;;0.50;0.40;;;18.00;42.80;;;;;;5067725;28;20793;-51
2023/01/21 05:55:44;;;;;;;0.50;0.30;;;18.00;42.70;;;;;;5067572;28;20053;-51
2023/01/21 05:58:11;;;;;;;0.22;0.20;;;18.00;42.70;;;;;;5067612;28;20429;-49
2023/01/21 06:00:40;;;;;;;0.60;0.55;;;17.90;42.60;;;;;;5067574;28;20928;-49
2023/01/21 06:03:08;;;;;;;1.38;0.38;;;17.90;42.50;;;;;;5067439;28;20049;-47
2023/01/21 06:05:35;;;;;;;0.70;0.30;;;17.90;42.50;;;;;;5067204;28;20131;-48
2023/01/21 06:08:02;;;;;;;0.82;0.20;;;17.90;42.50;;;;;;5067327;28;20690;-49
2023/01/21 06:10:30;;;;;;;1.65;0.20;;;17.90;42.50;;;;;;5067125;28;20037;-45
2023/01/21 06:12:57;;;;;;;0.90;0.30;;;17.90;42.40;;;;;;5067008;28;20095;-47
2023/01/21 06:15:24;;;;;;;0.80;0.50;;;17.90;42.40;;;;;;5067217;28;20115;-49
2023/01/21 06:17:51;;;;;;;1.30;0.28;;;17.90;42.40;;;;;;5067234;28;20097;-45
2023/01/21 06:20:19;;;;;;;1.13;0.25;;;17.90;42.40;;;;;;5066735;28;20040;-47
2023/01/21 06:22:46;;;;;;;0.32;0.32;;;17.90;42.30;;;;;;5066995;28;20055;-48
2023/01/21 06:25:14;;;;;;;0.20;0.20;;;17.90;42.30;;;;;;5067189;28;20037;-45
2023/01/21 06:27:42;;;;;;;1.80;0.55;;;17.90;42.30;;;;;;5082140;28;20521;-47
2023/01/21 06:30:11;;;;;;;1.38;0.45;;;17.90;42.40;;;;;;5051151;28;20588;-49
2023/01/21 06:32:38;;;;;;;0.50;0.50;;;17.90;42.30;;;;;;5046778;28;20087;-50
2023/01/21 06:35:05;;;;;;;1.02;0.30;;;17.90;42.30;;;;;;5057343;28;20054;-51
2023/01/21 06:37:32;;;;;;;3.33;0.30;;;17.90;42.30;;;;;;5065336;28;20128;-49
2023/01/21 06:39:59;;;;;;;0.85;0.20;;;17.90;42.30;;;;;;5066579;28;20036;-47
2023/01/21 06:42:27;;;;;;;0.40;0.20;;;17.90;42.40;;;;;;5066624;28;20127;-48
2023/01/21 06:44:55;;;;;;;1.42;0.30;;;17.80;42.30;;;;;;5066350;28;20047;-51
2023/01/21 06:47:23;;;;;;;0.95;0.30;;;17.90;42.30;;;;;;5066508;28;20523;-50
2023/01/21 06:49:50;;;;;;;0.68;0.30;;;17.90;42.30;;;;;;5066410;28;20040;-46
2023/01/21 06:52:17;;;;;;;0.50;0.40;;;17.90;42.30;;;;;;5066103;28;20068;-46
2023/01/21 06:54:44;;;;;;;0.80;0.20;;;17.90;42.30;;;;;;5066047;28;20053;-48
2023/01/21 06:57:11;;;;;;;0.80;0.55;;;17.90;42.30;;;;;;5066326;28;20078;-47
2023/01/21 06:59:39;;;;;;;0.43;0.30;;;17.90;42.60;;;;;;5064551;28;20040;-47
2023/01/21 07:02:07;;;;;;;2.47;0.50;;;17.90;42.20;;;;;;5047114;28;20045;-46
2023/01/21 07:04:34;;;;;;;0.77;0.77;;;17.90;42.20;;;;;;5057642;28;20040;-45
2023/01/21 07:07:01;;;;;;;2.90;0.20;;;17.90;42.20;;;;;;5081282;28;20090;-48
2023/01/21 07:09:28;;;;;;;0.40;0.30;;;17.90;42.20;;;;;;5066069;28;20040;-46
2023/01/21 07:11:57;;;;;;;1.90;1.05;;;17.90;42.20;;;;;;5065663;28;20080;-51
2023/01/21 07:14:24;;;;;;;3.10;0.57;;;17.80;42.20;;;;;;5071008;28;20063;-49
2023/01/21 07:16:52;;;;;;;0.65;0.57;;;17.90;42.20;;;;;;5086101;28;20542;-50
2023/01/21 07:19:20;;;;;;;0.55;0.47;;;17.90;42.20;;;;;;5061860;28;20048;-50
2023/01/21 07:21:47;;;;;;;0.70;0.40;;;17.80;42.10;;;;;;5045479;28;20041;-51
2023/01/21 07:24:14;;;;;;;2.47;0.30;;;17.90;42.10;;;;;;5046126;28;20040;-44
2023/01/21 07:26:42;;;;;;;0.30;0.30;;;17.90;42.10;;;;;;5045648;28;20069;-46
2023/01/21 07:29:09;;;;;;;0.20;0.20;;;17.80;42.10;;;;;;5052519;28;20465;-47
2023/01/21 07:31:36;;;;;;;2.17;0.65;;;17.90;42.10;;;;;;5045500;28;20079;-45
2023/01/21 07:34:03;;;;;;;1.05;0.45;;;17.90;42.10;;;;;;5045463;28;20871;-50
2023/01/21 07:36:32;;;;;;;4.18;1.08;;;17.90;42.20;;;;;;5045625;28;20497;-48
2023/01/21 07:38:59;;;;;;;5.05;0.50;;;17.90;42.30;;;;;;5045758;28;20076;-46
2023/01/21 07:41:26;;;;;;;5.07;1.08;;;17.90;42.40;;;;;;5044219;28;20037;-44
2023/01/21 07:43:53;;;;;;;6.72;0.70;;;17.90;42.50;;;;;;5061711;28;20048;-46
2023/01/21 07:46:22;;;;;;;1.88;1.08;;;17.90;42.50;;;;;;5065038;28;20118;-44
2023/01/21 07:48:50;;;;;;;6.85;0.57;;;17.90;42.50;;;;;;5059049;28;20074;-46
2023/01/21 07:51:17;;;;;;;4.80;0.90;;;17.90;42.50;;;;;;5060750;28;20051;-43
2023/01/21 07:53:46;;;;;;;4.38;1.13;;;18.00;42.60;;;;;;5050041;28;20052;-45
2023/01/21 07:56:13;;;;;;;8.15;0.90;;;18.00;42.70;;;;;;5062672;28;20098;-47
2023/01/21 07:58:41;;;;;;;6.45;1.05;;;18.00;42.70;;;;;;5063636;28;20037;-46
2023/01/21 08:01:10;;;;;;;4.40;1.10;;;18.00;42.60;;;;;;5063226;28;20127;-45
2023/01/21 08:03:37;;;;;;;3.90;0.47;;;18.00;42.50;;;;;;5071041;28;20488;-45
2023/01/21 08:06:05;;;;;;;4.63;0.47;;;18.00;42.50;;;;;;5083958;28;20040;-42
2023/01/21 08:08:32;;;;;;;5.47;1.02;;;18.00;42.30;;;;;;5083522;28;20125;-45
2023/01/21 08:11:00;;;;;;;5.50;0.68;;;18.00;42.30;;;;;;5083755;28;20587;-47
2023/01/21 08:13:28;;;;;;;1.77;0.52;;;18.10;42.20;;;;;;5083919;28;20498;-45
2023/01/21 08:15:56;;;;;;;4.55;0.82;;;18.00;42.10;;;;;;5083702;28;20046;-44
2023/01/21 08:18:24;;;;;;;1.65;0.95;;;18.00;42.10;;;;;;5082822;28;20051;-47
2023/01/21 08:20:55;;;;;;;0.85;0.75;;;18.00;42.00;;;;;;5084729;28;20044;-45
2023/01/21 08:23:22;;;;;;;1.45;0.52;;;18.00;41.90;;;;;;5085223;28;20040;-43
2023/01/21 08:25:49;;;;;;;9.07;0.70;;;18.00;41.80;;;;;;5085336;28;20044;-48
2023/01/21 08:28:18;;;;;;;1.23;0.65;;;18.00;41.80;;;;;;5078333;28;20043;-46
2023/01/21 08:30:45;;;;;;;2.45;0.73;;;18.00;41.70;;;;;;5064628;28;20099;-47
2023/01/21 08:33:12;;;;;;;1.25;1.15;;;18.00;41.70;;;;;;5065157;28;20048;-43
2023/01/21 08:35:40;;;;;;;1.30;0.57;;;18.00;41.70;;;;;;5069301;28;20074;-43
2023/01/21 08:38:07;;;;;;;1.63;0.88;;;18.00;41.60;;;;;;5069188;28;20044;-45
2023/01/21 08:40:35;;;;;;;2.55;0.82;;;18.00;41.60;;;;;;5067855;28;20048;-49
2023/01/21 08:43:04;;;;;;;1.15;0.52;;;18.00;41.50;;;;;;5069396;28;20083;-46
2023/01/21 08:45:33;;;;;;;1.17;0.77;;;18.00;41.50;;;;;;5068634;28;20086;-44
2023/01/21 08:48:02;;;;;;;2.30;0.73;;;18.00;41.40;;;;;;5068538;28;20062;-45
2023/01/21 08:50:29;;;;;;;2.38;0.35;;;18.00;41.40;;;;;;5068695;28;20094;-47
2023/01/21 08:52:58;;;;;;;1.58;0.88;;;18.00;41.40;;;;;;5065733;28;20076;-44
2023/01/21 08:55:27;;;;;;;0.50;0.47;;;17.90;41.20;;;;;;5065569;28;20532;-46
2023/01/21 08:57:54;;;;;;;0.80;0.80;;;17.90;41.20;;;;;;5068678;28;20078;-45
2023/01/21 09:00:23;;;;;;;1.23;0.80;;;17.90;41.50;;;;;;5068233;28;20135;-45
2023/01/21 09:02:52;;;;;;;1.60;0.80;;;17.90;41.10;;;;;;5068389;28;20083;-43
2023/01/21 09:05:19;;;;;;;1.48;1.38;;;17.90;41.10;;;;;;5068591;28;20040;-44
2023/01/21 09:07:46;;;;;;;1.63;1.48;;;17.90;41.00;;;;;;5068036;28;20536;-45
2023/01/21 09:10:59;;;;;;;1.27;0.77;;;17.90;41.00;;;;;;5068474;28;20538;-46
2023/01/21 09:13:04;;;;;;;0.85;0.70;;;17.90;41.00;;;;;;5068092;28;20123;-43
2023/01/21 09:15:31;;;;;;;1.10;0.80;;;17.90;41.00;;;;;;5068213;28;20086;-46
2023/01/21 09:18:00;;;;;;;0.98;0.70;;;17.90;40.90;;;;;;5068083;28;20041;-43
2023/01/21 09:20:28;;;;;;;1.15;0.73;;;17.90;40.90;;;;;;5064767;28;20510;-45
2023/01/21 09:22:55;;;;;;;2.00;0.60;;;17.80;40.80;;;;;;5047588;28;20152;-43
2023/01/21 09:25:22;;;;;;;0.90;0.85;;;17.80;40.80;;;;;;5048143;28;20215;-45
2023/01/21 09:27:49;;;;;;;1.02;0.93;;;17.90;40.80;;;;;;5050800;28;20448;-45
2023/01/21 09:30:17;;;;;;;2.65;0.82;;;17.90;40.80;;;;;;5051147;28;20056;-47
2023/01/21 09:32:44;;;;;;;0.77;0.50;;;17.90;40.80;;;;;;5047582;28;20041;-43
2023/01/21 09:35:13;;;;;;;1.77;0.68;;;17.90;40.70;;;;;;5047838;28;20409;-44
2023/01/21 09:37:40;;;;;;;1.05;0.60;;;17.90;40.70;;;;;;5047850;28;20116;-44
2023/01/21 09:40:10;;;;;;;2.35;0.70;;;17.80;40.60;;;;;;5054037;28;20036;-45
2023/01/21 09:42:41;;;;;;;1.13;0.90;;;17.90;40.60;;;;;;5067730;28;20127;-44
2023/01/21 09:45:13;;;;;;;1.13;0.93;;;17.90;40.60;;;;;;5067108;28;20045;-43
2023/01/21 09:47:43;;;;;;;1.83;1.00;;;17.90;40.50;;;;;;5067512;28;20048;-44
2023/01/21 09:50:15;;;;;;;0.70;0.70;;;17.90;40.50;;;;;;5067548;28;20040;-45
2023/01/21 09:52:44;;;;;;;1.50;1.15;;;17.90;40.40;;;;;;5066261;28;20068;-46
2023/01/21 09:55:16;;;;;;;2.42;1.10;;;17.90;40.30;;;;;;5049915;28;20424;-44
2023/01/21 09:58:05;;;;;;;1.83;0.88;;;17.90;40.30;;;;;;5049262;28;20057;-42
2023/01/21 10:00:36;;;;;;;1.77;0.90;;;17.90;40.20;;;;;;5065886;28;20544;-45
2023/01/21 10:03:16;;;;;;;1.70;0.75;;;17.90;40.20;;;;;;5067137;28;20424;-44
2023/01/21 10:06:15;;;;;;;0.82;0.70;;;17.90;40.10;;;;;;5065718;28;20608;-44
2023/01/21 10:09:10;;;;;;;1.20;0.98;;;17.90;40.10;;;;;;5067289;28;20071;-46
2023/01/21 10:11:47;;;;;;;0.80;0.80;;;17.90;40.10;;;;;;5067002;28;20049;-50
2023/01/21 10:14:39;;;;;;;1.52;0.60;;;17.90;40.10;;;;;;5067228;28;20041;-47
2023/01/21 10:17:13;;;;;;;2.50;1.13;;;17.80;40.00;;;;;;5067280;28;20136;-46
2023/01/21 10:19:47;;;;;;;2.05;0.93;;;17.80;40.00;;;;;;5067063;28;20148;-47
2023/01/21 10:22:23;;;;;;;2.17;0.95;;;17.80;40.00;;;;;;5066735;28;20053;-45
2023/01/21 10:24:56;;;;;;;0.88;0.88;;;17.80;40.00;;;;;;5067134;28;20478;-46
2023/01/21 10:27:25;;;;;;;1.42;0.80;;;17.80;40.00;;;;;;5066635;28;20048;-46
2023/01/21 10:29:57;;;;;;;3.25;0.98;;;17.80;39.90;;;;;;5053115;28;20044;-45
2023/01/21 10:32:27;;;;;;;1.60;0.75;;;17.80;39.90;;;;;;5046342;28;20783;-45
2023/01/21 10:34:55;;;;;;;0.77;0.50;;;17.80;39.90;;;;;;5046515;28;20051;-43
2023/01/21 10:37:33;;;;;;;2.50;1.08;;;17.80;39.90;;;;;;5046287;28;20037;-47
2023/01/21 10:40:12;;;;;;;0.82;0.82;;;17.80;39.90;;;;;;5046534;28;20056;-42
2023/01/21 10:43:01;;;;;;;1.17;1.08;;;17.80;39.90;;;;;;5046387;28;20045;-47
2023/01/21 10:45:36;;;;;;;1.65;1.20;;;17.80;39.80;;;;;;5049387;28;20554;-45
2023/01/21 10:48:13;;;;;;;0.88;0.77;;;17.80;39.80;;;;;;5046880;28;20045;-44
2023/01/21 10:50:49;;;;;;;1.83;0.70;;;17.80;39.80;;;;;;5046583;28;20540;-47
2023/01/21 10:53:29;;;;;;;4.43;1.20;;;17.80;39.80;;;;;;5047704;28;20553;-47
2023/01/21 10:56:08;;;;;;;1.23;1.13;;;17.80;39.80;;;;;;5065444;28;20067;-46
2023/01/21 10:58:40;;;;;;;1.33;1.02;;;17.80;39.80;;;;;;5066218;28;20046;-44
2023/01/21 11:01:16;;;;;;;1.67;1.58;;;17.80;39.80;;;;;;5059111;28;20033;-44
2023/01/21 11:03:47;;;;;;;1.63;1.52;;;17.80;39.70;;;;;;5046048;28;20049;-45
2023/01/21 11:06:17;;;;;;;2.85;1.08;;;17.80;39.70;;;;;;5045881;28;20086;-43
2023/01/21 11:08:49;;;;;;;1.48;1.38;;;17.80;39.60;;;;;;5046140;28;20414;-45
2023/01/21 11:11:26;;;;;;;2.00;0.93;;;17.80;39.60;;;;;;5045454;28;20579;-45
2023/01/21 11:13:54;;;;;;;1.70;1.33;;;17.90;39.60;;;;;;5044327;28;20144;-44
2023/01/21 11:16:36;;;;;;;1.90;1.10;;;17.80;39.50;;;;;;5046061;28;20135;-45
2023/01/21 11:19:05;;;;;;;0.77;0.77;;;17.90;39.50;;;;;;5064385;28;20059;-43
2023/01/21 11:21:32;;;;;;;2.15;0.82;;;17.80;39.40;;;;;;5065385;28;20072;-46
2023/01/21 11:24:02;;;;;;;1.70;0.80;;;17.90;39.40;;;;;;5065261;28;20056;-43
2023/01/21 11:26:32;;;;;;;3.10;1.38;;;17.90;39.20;;;;;;5063232;28;20045;-45
2023/01/21 11:29:08;;;;;;;1.85;0.90;;;18.00;39.20;;;;;;5052378;28;20122;-46
2023/01/21 11:31:36;;;;;;;1.65;1.38;;;18.00;39.10;;;;;;5045476;28;20047;-44
2023/01/21 11:34:06;;;;;;;2.20;1.10;;;18.00;39.00;;;;;;5044129;28;20041;-44
2023/01/21 11:36:34;;;;;;;1.35;1.35;;;18.00;38.90;;;;;;5045453;28;20068;-43
2023/01/21 11:39:05;;;;;;;0.90;0.60;;;18.00;38.80;;;;;;5045211;28;20064;-44
2023/01/21 11:41:33;;;;;;;1.00;0.90;;;18.00;38.80;;;;;;5044357;28;20048;-46
2023/01/21 11:44:15;;;;;;;3.67;1.05;;;18.10;38.80;;;;;;5045471;28;20136;-47
2023/01/21 11:46:46;;;;;;;1.70;1.20;;;18.10;38.70;;;;;;5045600;28;20577;-46
2023/01/21 11:49:23;;;;;;;3.38;1.73;;;18.10;38.70;;;;;;5045413;28;20053;-44
2023/01/21 11:51:50;;;;;;;3.03;1.40;;;18.20;38.30;;;;;;5045127;28;20094;-44
2023/01/21 11:54:20;;;;;;;2.05;1.02;;;18.20;38.20;;;;;;5054242;28;20037;-48
2023/01/21 11:56:56;;;;;;;1.60;1.50;;;18.30;38.10;;;;;;5065351;28;20729;-44
2023/01/21 11:59:26;;;;;;;0.87;0.87;;;18.40;37.90;;;;;;5065174;28;20044;-44
2023/01/21 12:01:59;;;;;;;1.30;1.20;;;18.50;37.90;;;;;;5065113;28;20055;-44
2023/01/21 12:04:26;;;;;;;2.50;1.30;;;18.60;37.70;;;;;;5065298;28;20045;-43
2023/01/21 12:06:59;;;;;;;3.42;1.17;;;18.70;37.60;;;;;;5064862;28;20052;-45
2023/01/21 12:09:29;;;;;;;1.25;1.15;;;18.70;37.50;;;;;;5046811;28;20143;-44
2023/01/21 12:12:28;;;;;;;1.92;1.55;;;18.80;37.30;;;;;;5065356;28;20056;-44
2023/01/21 12:15:00;;;;;;;0.73;0.65;;;18.90;37.10;;;;;;5065232;28;20131;-43
2023/01/21 12:17:50;;;;;;;1.98;1.27;;;18.90;37.00;;;;;;5063918;28;20044;-43
2023/01/21 12:20:32;;;;;;;1.83;1.05;;;19.00;36.90;;;;;;5065076;28;20560;-43
2023/01/21 12:23:19;;;;;;;2.10;1.00;;;19.00;36.80;;;;;;5064201;28;20044;-45
2023/01/21 12:25:55;;;;;;;1.08;0.98;;;19.10;36.70;;;;;;5063799;28;20127;-43
2023/01/21 12:28:39;;;;;;;2.10;1.35;;;19.10;36.60;;;;;;5064053;28;20040;-43
2023/01/21 12:31:22;;;;;;;0.90;0.90;;;19.20;36.50;;;;;;5043388;28;20092;-44
2023/01/21 12:33:56;;;;;;;0.85;0.73;;;19.20;36.30;;;;;;5044496;28;20051;-45
2023/01/21 12:36:30;;;;;;;3.03;1.30;;;19.30;36.30;;;;;;5044281;28;20152;-44
2023/01/21 12:39:21;;;;;;;1.63;1.08;;;19.30;36.10;;;;;;5044432;28;20048;-48
2023/01/21 12:41:56;;;;;;;1.02;1.02;;;19.40;36.00;;;;;;5041648;28;20056;-44
2023/01/21 12:44:29;;;;;;;2.00;1.13;;;19.40;36.00;;;;;;5044561;28;20041;-44
2023/01/21 12:47:02;;;;;;;1.63;0.88;;;19.40;36.60;;;;;;5047170;28;20045;-44
2023/01/21 12:49:51;;;;;;;3.03;2.03;;;19.40;35.80;;;;;;5044664;28;20098;-44
2023/01/21 12:52:22;;;;;;;1.75;1.02;;;19.50;35.70;;;;;;5044012;28;20052;-48
2023/01/21 12:54:58;;;;;;;1.48;0.80;;;19.50;35.70;;;;;;5056683;28;20761;-44
2023/01/21 12:57:43;;;;;;;1.75;0.77;;;19.60;35.60;;;;;;5062649;28;20401;-45
2023/01/21 13:00:18;;;;;;;1.85;1.00;;;19.60;35.50;;;;;;5064283;28;20052;-48
2023/01/21 13:02:56;;;;;;;1.30;1.17;;;19.70;35.50;;;;;;5064458;28;20040;-45
2023/01/21 13:05:33;;;;;;;1.67;1.15;;;19.70;35.40;;;;;;5063931;28;20053;-45
2023/01/21 13:08:17;;;;;;;0.65;0.65;;;19.80;35.30;;;;;;5056790;28;20413;-46
2023/01/21 13:10:48;;;;;;;1.05;0.90;;;19.80;35.20;;;;;;5044339;28;20049;-45